createdAt,value
2023-03-27T00:00:10.755Z,1.20
2023-03-27T00:02:38.741Z,0.90
2023-03-27T00:05:08.189Z,1.10
2023-03-27T00:07:37.129Z,1.13
2023-03-27T00:10:08.001Z,0.67
2023-03-27T00:12:35.908Z,1.10
2023-03-27T00:15:04.008Z,0.90
2023-03-27T00:17:31.886Z,0.70
2023-03-27T00:19:59.758Z,0.60
2023-03-27T00:22:29.917Z,0.63
2023-03-27T00:24:57.864Z,0.60
2023-03-27T00:27:27.222Z,1.07
2023-03-27T00:29:56.086Z,0.50
2023-03-27T00:32:24.088Z,0.73
2023-03-27T00:34:51.989Z,1.10
2023-03-27T00:37:19.964Z,1.10
2023-03-27T00:39:50.053Z,0.90
2023-03-27T00:42:22.787Z,0.63
2023-03-27T00:44:52.927Z,1.30
2023-03-27T00:47:28.871Z,0.90
2023-03-27T00:49:56.986Z,0.90
2023-03-27T00:52:31.446Z,0.93
2023-03-27T00:55:03.636Z,1.07
2023-03-27T00:57:31.948Z,0.77
2023-03-27T01:00:09.545Z,0.70
2023-03-27T01:02:37.818Z,0.60
2023-03-27T01:05:06.787Z,0.40
2023-03-27T01:07:34.847Z,0.60
2023-03-27T01:10:02.935Z,0.53
2023-03-27T01:12:37.576Z,0.77
2023-03-27T01:15:22.183Z,0.70
2023-03-27T01:18:00.269Z,0.60
2023-03-27T01:20:56.915Z,0.70
2023-03-27T01:24:11.347Z,0.40
2023-03-27T01:27:16.238Z,0.37
2023-03-27T01:29:55.540Z,0.60
2023-03-27T01:32:54.442Z,0.90
2023-03-27T01:35:38.970Z,0.70
2023-03-27T01:38:35.159Z,0.70
2023-03-27T01:41:12.348Z,0.50
2023-03-27T01:43:47.258Z,0.47
2023-03-27T01:46:21.091Z,0.67
2023-03-27T01:48:54.010Z,0.43
2023-03-27T01:51:26.489Z,0.33
2023-03-27T01:53:59.516Z,0.60
2023-03-27T01:56:32.844Z,0.67
2023-03-27T01:59:04.494Z,0.80
2023-03-27T02:01:37.298Z,0.90
2023-03-27T02:04:10.416Z,1.00
2023-03-27T02:06:42.494Z,1.10
2023-03-27T02:09:14.822Z,1.67
2023-03-27T02:11:50.695Z,0.83
2023-03-27T02:14:22.456Z,0.60
2023-03-27T02:16:55.087Z,0.70
2023-03-27T02:19:27.570Z,0.60
2023-03-27T02:21:55.410Z,0.53
2023-03-27T02:24:24.316Z,0.50
2023-03-27T02:27:01.913Z,0.60
2023-03-27T02:29:42.965Z,0.70
2023-03-27T02:32:20.253Z,0.73
2023-03-27T02:35:03.888Z,0.90
2023-03-27T02:37:39.635Z,0.67
2023-03-27T02:40:15.013Z,0.60
2023-03-27T02:42:54.041Z,0.70
2023-03-27T02:45:29.480Z,0.80
2023-03-27T02:48:04.260Z,0.97
2023-03-27T02:50:38.057Z,1.00
2023-03-27T02:53:09.726Z,1.50
2023-03-27T02:55:41.600Z,1.20
2023-03-27T02:58:16.352Z,1.73
2023-03-27T03:00:48.921Z,1.47
2023-03-27T03:03:22.336Z,1.07
2023-03-27T03:05:50.837Z,1.10
2023-03-27T03:08:21.637Z,1.30
2023-03-27T03:10:49.846Z,1.23
2023-03-27T03:13:19.468Z,1.10
2023-03-27T03:15:48.363Z,0.93
2023-03-27T03:18:18.338Z,1.37
2023-03-27T03:20:46.277Z,0.67
2023-03-27T03:23:14.225Z,0.87
2023-03-27T03:25:44.070Z,0.97
2023-03-27T03:28:12.962Z,0.97
2023-03-27T03:30:45.474Z,1.13
2023-03-27T03:33:14.138Z,0.80
2023-03-27T03:35:43.191Z,0.90
2023-03-27T03:38:11.172Z,1.30
2023-03-27T03:40:39.077Z,1.20
2023-03-27T03:43:06.988Z,0.83
2023-03-27T03:45:34.998Z,0.73
2023-03-27T03:48:04.495Z,0.80
2023-03-27T03:50:33.034Z,0.70
2023-03-27T03:53:00.998Z,1.10
2023-03-27T03:55:29.502Z,1.27
2023-03-27T03:57:58.475Z,0.83
2023-03-27T04:00:26.883Z,1.10
2023-03-27T04:02:55.917Z,0.83
2023-03-27T04:05:26.063Z,1.23
2023-03-27T04:07:54.134Z,0.80
2023-03-27T04:10:22.016Z,0.80
2023-03-27T04:12:50.720Z,0.70
2023-03-27T04:15:18.842Z,0.73
2023-03-27T04:17:48.389Z,0.70
2023-03-27T04:20:17.244Z,0.57
2023-03-27T04:22:47.727Z,0.80
2023-03-27T04:25:18.126Z,0.60
2023-03-27T04:27:46.295Z,0.70
2023-03-27T04:30:15.833Z,0.67
2023-03-27T04:32:43.942Z,0.73
2023-03-27T04:35:12.313Z,0.80
2023-03-27T04:37:41.885Z,0.57
2023-03-27T04:40:13.258Z,0.50
2023-03-27T04:42:43.648Z,0.63
2023-03-27T04:45:14.383Z,0.70
2023-03-27T04:47:42.691Z,0.50
2023-03-27T04:50:12.833Z,0.60
2023-03-27T04:52:40.780Z,0.57
2023-03-27T04:55:09.321Z,0.67
2023-03-27T04:57:39.612Z,0.50
2023-03-27T05:00:16.270Z,1.00
2023-03-27T05:02:44.858Z,0.70
2023-03-27T05:05:13.955Z,0.97
2023-03-27T05:07:46.194Z,1.20
2023-03-27T05:10:15.737Z,0.80
2023-03-27T05:12:46.107Z,1.27
2023-03-27T05:15:14.840Z,1.20
2023-03-27T05:17:44.302Z,1.23
2023-03-27T05:20:14.518Z,1.03
2023-03-27T05:22:43.522Z,1.10
2023-03-27T05:25:13.646Z,1.00
2023-03-27T05:27:46.990Z,1.00
2023-03-27T05:30:15.960Z,1.60
2023-03-27T05:32:48.304Z,2.17
2023-03-27T05:35:18.175Z,1.80
2023-03-27T05:37:48.541Z,1.57
2023-03-27T05:40:17.609Z,3.17
2023-03-27T05:42:46.902Z,2.47
2023-03-27T05:45:15.483Z,1.70
2023-03-27T05:47:48.106Z,1.37
2023-03-27T05:50:16.490Z,1.30
2023-03-27T05:52:44.796Z,1.33
2023-03-27T05:55:13.940Z,1.60
2023-03-27T05:57:43.111Z,1.40
2023-03-27T06:00:17.068Z,1.70
2023-03-27T06:02:45.731Z,1.77
2023-03-27T06:05:14.739Z,1.20
2023-03-27T06:07:43.666Z,1.57
2023-03-27T06:10:14.307Z,1.77
2023-03-27T06:12:43.338Z,1.33
2023-03-27T06:15:14.464Z,1.00
2023-03-27T06:17:44.369Z,1.67
2023-03-27T06:20:15.046Z,1.30
2023-03-27T06:22:45.709Z,1.47
2023-03-27T06:25:13.925Z,1.63
2023-03-27T06:27:43.259Z,0.90
2023-03-27T06:30:13.655Z,1.30
2023-03-27T06:32:45.885Z,1.47
2023-03-27T06:35:14.977Z,1.13
2023-03-27T06:37:45.896Z,1.10
2023-03-27T06:40:21.228Z,1.27
2023-03-27T06:42:53.506Z,1.13
2023-03-27T06:45:23.506Z,0.83
2023-03-27T06:47:54.837Z,0.57
2023-03-27T06:50:25.986Z,0.87
2023-03-27T06:52:54.399Z,0.50
2023-03-27T06:55:24.174Z,0.50
2023-03-27T06:57:53.733Z,1.00
2023-03-27T07:00:26.404Z,1.10
2023-03-27T07:02:56.531Z,0.43
2023-03-27T07:05:25.446Z,0.30
2023-03-27T07:07:54.111Z,0.57
2023-03-27T07:10:22.741Z,0.67
2023-03-27T07:12:52.700Z,1.07
2023-03-27T07:15:22.935Z,0.87
2023-03-27T07:17:56.046Z,0.83
2023-03-27T07:20:24.810Z,0.90
2023-03-27T07:22:53.688Z,0.80
2023-03-27T07:25:23.158Z,0.80
2023-03-27T07:27:51.079Z,0.97
2023-03-27T07:30:19.520Z,1.13
2023-03-27T07:32:49.490Z,1.30
2023-03-27T07:35:18.258Z,1.20
2023-03-27T07:37:46.661Z,1.20
2023-03-27T07:40:14.640Z,1.30
2023-03-27T07:42:46.122Z,1.47
2023-03-27T07:45:14.252Z,1.23
2023-03-27T07:47:43.440Z,1.27
2023-03-27T07:50:13.551Z,1.03
2023-03-27T07:52:43.604Z,0.80
2023-03-27T07:55:14.350Z,0.90
2023-03-27T07:57:59.211Z,0.67
2023-03-27T08:00:28.440Z,0.60
2023-03-27T08:03:07.293Z,0.53
2023-03-27T08:05:37.880Z,0.80
2023-03-27T08:08:06.271Z,0.57
2023-03-27T08:10:34.237Z,0.70
2023-03-27T08:13:02.179Z,0.50
2023-03-27T08:15:30.094Z,0.90
2023-03-27T08:18:00.240Z,0.90
2023-03-27T08:20:30.148Z,1.07
2023-03-27T08:23:00.692Z,0.63
2023-03-27T08:25:29.739Z,1.20
2023-03-27T08:27:57.602Z,1.33
2023-03-27T08:30:25.444Z,0.97
2023-03-27T08:32:53.537Z,1.53
2023-03-27T08:35:21.611Z,1.00
2023-03-27T08:37:49.720Z,1.07
2023-03-27T08:40:25.902Z,1.03
2023-03-27T08:42:56.953Z,1.20
2023-03-27T08:45:29.394Z,1.00
2023-03-27T08:48:01.489Z,1.10
2023-03-27T08:50:34.411Z,0.53
2023-03-27T08:53:04.590Z,0.63
2023-03-27T08:55:41.305Z,0.37
2023-03-27T08:58:17.547Z,0.50
2023-03-27T09:00:47.796Z,0.47
2023-03-27T09:03:22.384Z,0.53
2023-03-27T09:05:56.599Z,0.70
2023-03-27T09:08:34.585Z,0.47
2023-03-27T09:11:09.925Z,0.53
2023-03-27T09:13:45.203Z,0.63
2023-03-27T09:16:19.319Z,1.20
2023-03-27T09:18:53.956Z,0.73
2023-03-27T09:21:27.211Z,1.10
2023-03-27T09:23:58.678Z,0.83
2023-03-27T09:26:33.160Z,1.00
2023-03-27T09:29:03.134Z,0.80
2023-03-27T09:31:34.340Z,0.93
2023-03-27T09:34:05.849Z,0.80
2023-03-27T09:36:35.703Z,1.07
2023-03-27T09:39:07.855Z,1.27
2023-03-27T09:41:42.313Z,1.03
2023-03-27T09:44:14.020Z,0.83
2023-03-27T09:46:46.300Z,1.00
2023-03-27T09:49:17.035Z,0.77
2023-03-27T09:51:47.158Z,1.10
2023-03-27T09:54:17.831Z,1.03
2023-03-27T09:56:50.108Z,0.93
2023-03-27T09:59:25.380Z,1.00
2023-03-27T10:01:56.566Z,0.80
2023-03-27T10:04:26.406Z,1.30
2023-03-27T10:07:01.510Z,0.97
2023-03-27T10:09:32.096Z,1.17
2023-03-27T10:12:10.946Z,0.80
2023-03-27T10:14:42.410Z,0.93
2023-03-27T10:17:16.306Z,1.13
2023-03-27T10:19:45.697Z,1.37
2023-03-27T10:22:21.600Z,1.10
2023-03-27T10:24:49.809Z,1.10
2023-03-27T10:27:26.962Z,1.00
2023-03-27T10:29:55.233Z,0.83
2023-03-27T10:32:44.081Z,1.73
2023-03-27T10:35:24.054Z,1.53
2023-03-27T10:37:52.700Z,1.03
2023-03-27T10:40:23.057Z,0.97
2023-03-27T10:42:52.608Z,0.83
2023-03-27T10:45:22.942Z,1.13
2023-03-27T10:47:53.912Z,0.87
2023-03-27T10:50:26.440Z,1.10
2023-03-27T10:53:02.241Z,0.83
2023-03-27T10:55:44.823Z,1.10
2023-03-27T10:58:27.119Z,1.10
2023-03-27T11:01:01.896Z,1.33
2023-03-27T11:03:35.597Z,1.30
2023-03-27T11:06:08.960Z,1.30
2023-03-27T11:08:46.636Z,1.20
2023-03-27T11:11:19.119Z,1.40
2023-03-27T11:13:49.434Z,1.20
2023-03-27T11:16:23.232Z,1.27
2023-03-27T11:18:55.774Z,1.67
2023-03-27T11:21:30.303Z,0.90
2023-03-27T11:23:59.947Z,1.10
2023-03-27T11:26:33.773Z,1.27
2023-03-27T11:29:09.383Z,1.27
2023-03-27T11:31:40.538Z,1.30
2023-03-27T11:34:28.752Z,1.20
2023-03-27T11:37:02.633Z,1.47
2023-03-27T11:39:37.224Z,1.00
2023-03-27T11:42:15.550Z,1.03
2023-03-27T11:44:45.524Z,0.60
2023-03-27T11:47:45.551Z,0.80
2023-03-27T11:50:34.185Z,0.93
2023-03-27T11:53:15.759Z,1.17
2023-03-27T11:56:01.528Z,0.80
2023-03-27T11:58:35.745Z,1.20
2023-03-27T12:01:12.613Z,1.00
2023-03-27T12:04:12.264Z,0.70
2023-03-27T12:06:46.016Z,0.50
2023-03-27T12:09:30.147Z,0.30
2023-03-27T12:12:11.696Z,0.30
2023-03-27T12:14:53.522Z,0.43
2023-03-27T12:17:45.672Z,0.50
2023-03-27T12:20:32.836Z,0.83
2023-03-27T12:23:10.884Z,0.77
2023-03-27T12:25:58.112Z,0.57
2023-03-27T12:28:42.015Z,1.13
2023-03-27T12:31:26.415Z,0.50
2023-03-27T12:34:02.594Z,0.90
2023-03-27T12:36:34.656Z,0.83
2023-03-27T12:39:05.039Z,1.20
2023-03-27T12:41:33.878Z,0.93
2023-03-27T12:44:04.482Z,1.23
2023-03-27T12:46:34.785Z,0.77
2023-03-27T12:49:20.184Z,1.20
2023-03-27T12:52:04.871Z,1.17
2023-03-27T12:54:34.249Z,0.90
2023-03-27T12:57:07.513Z,0.77
2023-03-27T12:59:39.388Z,1.03
2023-03-27T13:02:43.850Z,1.10
2023-03-27T13:05:27.732Z,1.20
2023-03-27T13:08:22.795Z,1.00
2023-03-27T13:10:59.396Z,1.10
2023-03-27T13:14:02.737Z,1.10
2023-03-27T13:16:48.909Z,1.17
2023-03-27T13:19:32.618Z,1.20
2023-03-27T13:22:21.256Z,0.80
2023-03-27T13:25:16.044Z,0.73
2023-03-27T13:27:54.181Z,1.00
2023-03-27T13:30:43.929Z,1.10
2023-03-27T13:33:17.154Z,0.80
2023-03-27T13:36:12.519Z,1.13
2023-03-27T13:39:20.924Z,1.00
2023-03-27T13:41:56.591Z,0.77
2023-03-27T13:44:34.060Z,1.27
2023-03-27T13:47:11.757Z,0.90
2023-03-27T13:50:14.865Z,0.83
2023-03-27T13:53:23.891Z,0.97
2023-03-27T13:56:06.543Z,0.87
2023-03-27T13:58:51.404Z,1.20
2023-03-27T14:01:34.906Z,1.63
2023-03-27T14:04:47.487Z,1.40
2023-03-27T14:07:38.878Z,1.50
2023-03-27T14:10:19.699Z,1.50
2023-03-27T14:12:59.377Z,1.20
2023-03-27T14:15:51.507Z,1.60
2023-03-27T14:18:57.050Z,1.23
2023-03-27T14:21:37.819Z,1.33
2023-03-27T14:24:15.353Z,1.27
2023-03-27T14:26:45.276Z,1.20
2023-03-27T14:29:15.333Z,1.10
2023-03-27T14:31:44.416Z,1.10
2023-03-27T14:34:18.800Z,1.23
2023-03-27T14:36:49.757Z,1.20
2023-03-27T14:39:20.023Z,0.80
2023-03-27T14:41:49.267Z,0.67
2023-03-27T14:44:21.384Z,1.10
2023-03-27T14:46:50.342Z,1.47
2023-03-27T14:49:24.537Z,1.23
2023-03-27T14:51:55.003Z,1.10
2023-03-27T14:54:28.744Z,0.87
2023-03-27T14:57:00.023Z,1.10
2023-03-27T14:59:34.661Z,0.90
2023-03-27T15:02:07.353Z,0.97
2023-03-27T15:04:40.068Z,0.93
2023-03-27T15:07:14.358Z,0.90
2023-03-27T15:09:43.409Z,1.33
2023-03-27T15:12:12.581Z,0.93
2023-03-27T15:14:42.847Z,1.00
2023-03-27T15:17:15.849Z,1.50
2023-03-27T15:19:48.458Z,1.20
2023-03-27T15:22:24.453Z,1.30
2023-03-27T15:24:56.724Z,1.37
2023-03-27T15:27:29.254Z,1.10
2023-03-27T15:30:01.978Z,1.00
2023-03-27T15:32:33.875Z,1.60
2023-03-27T15:35:05.367Z,1.43
2023-03-27T15:37:34.984Z,1.40
2023-03-27T15:40:28.412Z,1.90
2023-03-27T15:43:04.432Z,1.17
2023-03-27T15:45:40.200Z,1.30
2023-03-27T15:48:19.641Z,0.90
2023-03-27T15:50:58.064Z,1.20
2023-03-27T15:53:38.206Z,1.10
2023-03-27T15:56:08.685Z,1.07
2023-03-27T15:58:48.310Z,1.20
2023-03-27T16:01:23.462Z,1.20
2023-03-27T16:03:52.256Z,1.27
2023-03-27T16:06:30.668Z,1.33
2023-03-27T16:08:59.557Z,1.60
2023-03-27T16:11:36.136Z,0.87
2023-03-27T16:14:04.500Z,1.10
2023-03-27T16:16:34.816Z,1.80
2023-03-27T16:19:04.564Z,1.40
2023-03-27T16:21:35.946Z,1.23
2023-03-27T16:24:03.888Z,1.73
2023-03-27T16:26:33.076Z,1.27
2023-03-27T16:29:05.063Z,1.67
2023-03-27T16:31:34.408Z,1.20
2023-03-27T16:34:02.912Z,1.13
2023-03-27T16:36:32.600Z,0.97
2023-03-27T16:39:00.712Z,0.90
2023-03-27T16:41:28.665Z,1.07
2023-03-27T16:43:56.601Z,1.20
2023-03-27T16:46:27.307Z,0.50
2023-03-27T16:48:57.632Z,1.07
2023-03-27T16:51:28.192Z,0.83
2023-03-27T16:53:57.186Z,1.00
2023-03-27T16:56:25.697Z,1.20
2023-03-27T16:58:53.678Z,0.80
2023-03-27T17:01:23.815Z,1.20
2023-03-27T17:03:51.877Z,0.80
2023-03-27T17:06:22.737Z,1.00
2023-03-27T17:08:55.059Z,1.23
2023-03-27T17:11:23.677Z,1.27
2023-03-27T17:13:52.673Z,1.27
2023-03-27T17:16:20.711Z,1.13
2023-03-27T17:18:48.662Z,1.60
2023-03-27T17:21:16.616Z,1.17
2023-03-27T17:23:48.274Z,1.40
2023-03-27T17:26:23.071Z,1.30
2023-03-27T17:28:51.212Z,0.93
2023-03-27T17:31:19.229Z,1.33
2023-03-27T17:33:47.373Z,1.20
2023-03-27T17:36:21.645Z,0.97
2023-03-27T17:38:56.274Z,1.03
2023-03-27T17:41:24.451Z,0.87
2023-03-27T17:43:52.366Z,1.30
2023-03-27T17:46:20.427Z,1.00
2023-03-27T17:48:49.349Z,1.47
2023-03-27T17:51:17.469Z,1.30
2023-03-27T17:53:45.908Z,1.37
2023-03-27T17:56:15.620Z,1.33
2023-03-27T17:58:43.810Z,1.67
2023-03-27T18:01:16.999Z,1.47
2023-03-27T18:03:45.401Z,1.60
2023-03-27T18:06:13.851Z,1.20
2023-03-27T18:08:42.155Z,1.40
2023-03-27T18:11:11.230Z,1.60
2023-03-27T18:13:41.236Z,1.20
2023-03-27T18:16:10.898Z,1.47
2023-03-27T18:18:39.949Z,0.90
2023-03-27T18:21:07.994Z,1.17
2023-03-27T18:23:38.290Z,0.93
2023-03-27T18:26:14.126Z,1.57
2023-03-27T18:28:43.876Z,1.17
2023-03-27T18:31:13.065Z,1.10
2023-03-27T18:33:41.113Z,1.30
2023-03-27T18:36:10.789Z,1.37
2023-03-27T18:38:40.278Z,1.60
2023-03-27T18:41:08.558Z,1.90
2023-03-27T18:43:36.470Z,1.70
2023-03-27T18:46:07.519Z,1.70
2023-03-27T18:48:36.403Z,1.60
2023-03-27T18:51:05.941Z,1.53
2023-03-27T18:53:33.904Z,1.50
2023-03-27T18:56:02.490Z,1.50
2023-03-27T18:58:30.904Z,1.30
2023-03-27T19:00:59.984Z,1.40
2023-03-27T19:03:35.397Z,1.20
2023-03-27T19:06:06.253Z,1.13
2023-03-27T19:08:37.438Z,1.73
2023-03-27T19:11:05.894Z,1.23
2023-03-27T19:13:33.798Z,1.20
2023-03-27T19:16:02.101Z,1.40
2023-03-27T19:18:43.707Z,1.20
2023-03-27T19:21:11.667Z,1.27
2023-03-27T19:23:39.537Z,1.40
2023-03-27T19:26:08.997Z,1.10
2023-03-27T19:28:37.677Z,0.90
2023-03-27T19:31:06.499Z,0.70
2023-03-27T19:33:34.563Z,1.00
2023-03-27T19:36:03.892Z,1.20
2023-03-27T19:38:32.020Z,1.13
2023-03-27T19:41:00.127Z,1.10
2023-03-27T19:43:28.221Z,0.80
2023-03-27T19:46:08.190Z,1.03
2023-03-27T19:48:42.756Z,1.07
2023-03-27T19:51:12.049Z,0.97
2023-03-27T19:53:40.018Z,1.60
2023-03-27T19:56:07.992Z,1.20
2023-03-27T19:58:35.958Z,1.50
2023-03-27T20:01:04.640Z,1.00
2023-03-27T20:03:33.266Z,1.27
2023-03-27T20:06:07.644Z,1.03
2023-03-27T20:08:38.818Z,1.67
2023-03-27T20:11:07.386Z,1.13
2023-03-27T20:13:49.039Z,1.60
2023-03-27T20:16:24.843Z,1.23
2023-03-27T20:19:03.364Z,1.47
2023-03-27T20:21:32.828Z,1.97
2023-03-27T20:24:02.196Z,1.07
2023-03-27T20:26:38.936Z,1.30
2023-03-27T20:29:07.188Z,1.63
2023-03-27T20:31:35.395Z,1.30
2023-03-27T20:34:03.486Z,1.43
2023-03-27T20:36:34.742Z,1.67
2023-03-27T20:39:06.347Z,1.53
2023-03-27T20:41:34.614Z,1.53
2023-03-27T20:44:02.849Z,1.03
2023-03-27T20:46:32.885Z,1.43
2023-03-27T20:49:03.405Z,1.73
2023-03-27T20:51:31.359Z,1.20
2023-03-27T20:53:59.978Z,1.40
2023-03-27T20:56:29.240Z,1.93
2023-03-27T20:58:57.135Z,1.40
2023-03-27T21:01:27.257Z,1.20
2023-03-27T21:03:58.188Z,1.63
2023-03-27T21:06:26.404Z,1.50
2023-03-27T21:08:54.396Z,1.77
2023-03-27T21:11:22.280Z,1.80
2023-03-27T21:13:51.545Z,1.67
2023-03-27T21:16:19.497Z,1.33
2023-03-27T21:18:47.384Z,1.20
2023-03-27T21:21:15.648Z,1.50
2023-03-27T21:23:43.699Z,1.17
2023-03-27T21:26:11.722Z,1.20
2023-03-27T21:28:39.597Z,1.50
2023-03-27T21:31:10.576Z,1.40
2023-03-27T21:33:39.584Z,0.93
2023-03-27T21:36:08.472Z,1.60
2023-03-27T21:38:37.939Z,1.27
2023-03-27T21:41:06.729Z,1.40
2023-03-27T21:43:34.933Z,1.33
2023-03-27T21:46:03.701Z,1.83
2023-03-27T21:48:33.336Z,1.40
2023-03-27T21:51:02.184Z,1.53
2023-03-27T21:53:30.483Z,1.43
2023-03-27T21:55:59.112Z,1.60
2023-03-27T21:58:27.925Z,1.33
2023-03-27T22:00:57.509Z,1.20
2023-03-27T22:03:25.818Z,1.47
2023-03-27T22:06:08.372Z,1.33
2023-03-27T22:08:39.465Z,1.50
2023-03-27T22:11:07.771Z,1.33
2023-03-27T22:13:36.111Z,1.47
2023-03-27T22:16:09.782Z,1.63
2023-03-27T22:18:37.804Z,1.00
2023-03-27T22:21:19.273Z,1.40
2023-03-27T22:23:48.962Z,1.07
2023-03-27T22:26:17.233Z,1.63
2023-03-27T22:28:45.400Z,1.27
2023-03-27T22:31:13.411Z,0.93
2023-03-27T22:33:41.448Z,1.57
2023-03-27T22:36:11.701Z,1.30
2023-03-27T22:38:41.907Z,1.27
2023-03-27T22:41:11.383Z,1.70
2023-03-27T22:43:39.500Z,1.40
2023-03-27T22:46:09.192Z,1.00
2023-03-27T22:48:37.110Z,1.00
2023-03-27T22:51:05.372Z,1.40
2023-03-27T22:53:33.841Z,1.20
2023-03-27T22:56:04.050Z,1.73
2023-03-27T22:58:32.148Z,1.20
2023-03-27T23:01:00.546Z,1.37
2023-03-27T23:03:29.004Z,1.10
2023-03-27T23:05:57.285Z,1.00
2023-03-27T23:08:27.892Z,1.13
2023-03-27T23:10:57.756Z,1.87
2023-03-27T23:13:28.481Z,1.37
2023-03-27T23:15:56.939Z,1.23
2023-03-27T23:18:25.714Z,1.50
2023-03-27T23:20:56.951Z,1.70
2023-03-27T23:23:25.310Z,1.60
2023-03-27T23:25:53.560Z,1.03
2023-03-27T23:28:21.803Z,1.57
2023-03-27T23:30:58.905Z,0.90
2023-03-27T23:33:27.538Z,0.93
2023-03-27T23:36:01.713Z,1.03
2023-03-27T23:38:29.938Z,1.13
2023-03-27T23:40:58.917Z,0.90
2023-03-27T23:43:27.933Z,1.20
2023-03-27T23:45:59.270Z,0.97
2023-03-27T23:48:27.962Z,1.13
2023-03-27T23:50:56.921Z,1.30
2023-03-27T23:53:26.328Z,1.23
2023-03-27T23:55:56.042Z,1.17
2023-03-27T23:58:24.303Z,1.10
